Time;durP1;ratioP1;P1;durP2;ratioP2;P2;SDS_P1;SDS_P2;PMS_P1;PMS_P2;Temp;Humidity;BMP_temperature;BMP_pressure;BME280_temperature;BME280_humidity;BME280_pressure;Samples;Min_cycle;Max_cycle;Signal;HPM_P1;HPM_P2
2023/12/14 00:02:00;;;;;;;44.80;27.30;;;;;;;4.70;90.24;99059.68;131841;1253;108609;-84
2023/12/14 00:05:06;;;;;;;33.80;20.10;;;;;;;4.72;90.25;99062.52;131438;1254;107513;-86
2023/12/14 00:08:12;;;;;;;34.50;20.00;;;;;;;4.75;90.41;99062.21;131578;1253;107733;-86
2023/12/14 00:11:18;;;;;;;34.90;23.10;;;;;;;4.76;90.20;99065.69;131614;1253;108436;-86
2023/12/14 00:14:23;;;;;;;33.10;20.90;;;;;;;4.77;90.08;99073.52;131386;1251;108646;-83
2023/12/14 00:17:29;;;;;;;30.50;17.30;;;;;;;4.75;89.93;99075.77;131485;1263;107203;-86
2023/12/14 00:20:35;;;;;;;29.00;17.20;;;;;;;4.71;90.00;99072.77;131767;1253;108542;-86
2023/12/14 00:23:40;;;;;;;24.20;13.80;;;;;;;4.70;90.08;99079.78;131331;1253;108832;-85
2023/12/14 00:26:46;;;;;;;29.00;16.30;;;;;;;4.69;90.15;99080.89;131531;1249;107598;-85
2023/12/14 00:29:51;;;;;;;25.00;14.70;;;;;;;4.72;90.26;99080.35;131572;1253;108621;-85
2023/12/14 00:32:57;;;;;;;27.50;18.00;;;;;;;4.74;89.99;99086.14;131585;1251;107771;-85
2023/12/14 00:36:02;;;;;;;28.90;18.50;;;;;;;4.70;90.08;99087.13;131344;1251;106306;-86
2023/12/14 00:39:09;;;;;;;27.60;15.30;;;;;;;4.69;90.11;99085.45;131657;1251;108473;-86
2023/12/14 00:42:14;;;;;;;28.40;17.10;;;;;;;4.67;89.98;99089.21;131712;1253;108337;-84
2023/12/14 00:45:20;;;;;;;29.30;15.70;;;;;;;4.62;90.01;99090.88;131459;1255;107090;-86
2023/12/14 00:48:26;;;;;;;25.20;12.90;;;;;;;4.56;90.01;99096.06;131917;1250;108475;-85
2023/12/14 00:51:31;;;;;;;31.50;16.60;;;;;;;4.53;90.22;99094.55;131633;1254;108690;-85
2023/12/14 00:54:37;;;;;;;27.20;15.50;;;;;;;4.58;90.22;99096.10;131485;1249;107164;-85
2023/12/14 00:57:43;;;;;;;28.20;16.80;;;;;;;4.62;90.08;99101.61;131397;1254;108627;-85
2023/12/14 01:00:49;;;;;;;25.90;14.80;;;;;;;4.63;89.92;99106.66;131485;1254;108541;-86
2023/12/14 01:03:54;;;;;;;25.30;15.10;;;;;;;4.62;89.96;99107.98;131417;1251;107723;-84
2023/12/14 01:07:00;;;;;;;25.40;15.80;;;;;;;4.60;89.89;99106.66;131467;1249;106799;-85
2023/12/14 01:10:07;;;;;;;24.50;14.50;;;;;;;4.60;90.01;99107.85;131739;1254;108724;-86
2023/12/14 01:13:13;;;;;;;25.40;14.30;;;;;;;4.59;89.90;99113.61;131463;1255;109137;-85
2023/12/14 01:16:18;;;;;;;25.10;14.50;;;;;;;4.52;89.90;99115.08;131605;1251;107866;-85
2023/12/14 01:19:25;;;;;;;26.40;16.60;;;;;;;4.50;90.17;99117.17;131567;1251;106658;-83
2023/12/14 01:22:30;;;;;;;24.70;14.30;;;;;;;4.52;89.95;99117.20;131469;1251;106350;-84
2023/12/14 01:25:36;;;;;;;26.30;15.60;;;;;;;4.52;90.05;99118.05;131342;1253;105312;-84
2023/12/14 01:28:42;;;;;;;24.40;14.10;;;;;;;4.47;90.05;99122.27;131449;1251;107586;-85
2023/12/14 01:31:47;;;;;;;23.80;13.90;;;;;;;4.41;89.98;99119.69;131641;1251;107220;-86
2023/12/14 01:34:53;;;;;;;20.60;11.70;;;;;;;4.33;90.13;99122.41;131722;1251;106939;-85
2023/12/14 01:37:59;;;;;;;22.70;12.60;;;;;;;4.27;90.25;99125.81;131517;1254;108646;-85
2023/12/14 01:41:05;;;;;;;21.60;13.10;;;;;;;4.24;90.24;99127.89;131532;1253;108171;-86
2023/12/14 01:44:11;;;;;;;20.30;11.60;;;;;;;4.26;90.37;99128.23;131599;1251;107535;-85
2023/12/14 01:47:17;;;;;;;22.80;12.90;;;;;;;4.30;90.23;99130.27;131453;1251;106856;-86
2023/12/14 01:50:22;;;;;;;22.30;13.10;;;;;;;4.29;90.20;99129.73;131604;1264;106165;-86
2023/12/14 01:53:28;;;;;;;25.40;13.50;;;;;;;4.26;90.21;99130.71;131647;1253;106821;-86
2023/12/14 01:56:34;;;;;;;19.10;12.50;;;;;;;4.25;90.26;99130.95;131643;1249;107170;-87
2023/12/14 01:59:39;;;;;;;20.00;12.60;;;;;;;4.24;90.17;99130.69;131739;1251;108646;-86
2023/12/14 02:02:45;;;;;;;21.20;12.00;;;;;;;4.20;90.19;99128.77;131677;1251;108638;-85
2023/12/14 02:05:51;;;;;;;20.40;12.20;;;;;;;4.18;90.39;99129.98;131537;1254;106478;-85
2023/12/14 02:08:57;;;;;;;22.70;12.20;;;;;;;4.20;90.31;99125.45;131573;1253;107903;-85
2023/12/14 02:12:02;;;;;;;23.00;13.20;;;;;;;4.23;90.39;99127.48;131573;1253;107075;-85
2023/12/14 02:15:09;;;;;;;23.60;13.80;;;;;;;4.19;90.20;99128.38;131377;1253;107557;-85
2023/12/14 02:18:15;;;;;;;25.30;14.40;;;;;;;4.16;90.29;99127.37;131435;1255;106838;-85
2023/12/14 02:21:20;;;;;;;23.20;12.80;;;;;;;4.13;90.20;99128.85;131123;1254;221547;-85
2023/12/14 02:24:26;;;;;;;24.30;12.60;;;;;;;4.09;90.36;99127.50;131364;1250;107559;-85
2023/12/14 02:27:32;;;;;;;21.20;12.50;;;;;;;4.04;90.41;99126.69;131215;1251;106381;-85
2023/12/14 02:30:37;;;;;;;22.50;12.20;;;;;;;4.07;90.45;99129.62;131228;1263;107628;-85
2023/12/14 02:33:43;;;;;;;22.00;12.80;;;;;;;4.09;90.43;99127.08;131464;1254;108647;-85
2023/12/14 02:36:49;;;;;;;20.70;12.60;;;;;;;4.17;90.45;99126.79;131587;1253;108541;-86
2023/12/14 02:39:55;;;;;;;23.00;13.20;;;;;;;4.21;90.44;99132.34;131651;1251;108642;-86
2023/12/14 02:43:00;;;;;;;24.70;13.40;;;;;;;4.20;90.25;99134.08;131548;1251;107606;-85
2023/12/14 02:46:06;;;;;;;21.50;12.10;;;;;;;4.14;90.21;99137.23;131561;1254;106650;-86
2023/12/14 02:49:11;;;;;;;20.90;11.80;;;;;;;4.05;90.36;99134.02;131656;1263;107542;-85
2023/12/14 02:52:17;;;;;;;19.50;11.10;;;;;;;4.05;90.42;99136.99;131519;1250;108555;-85
2023/12/14 02:55:22;;;;;;;19.30;11.10;;;;;;;4.04;90.46;99139.54;131461;1253;108788;-87
2023/12/14 02:58:28;;;;;;;17.00;10.60;;;;;;;3.99;90.40;99140.71;131395;1251;108643;-85
2023/12/14 03:01:34;;;;;;;18.80;11.40;;;;;;;4.00;90.42;99142.91;131566;1251;108187;-84
2023/12/14 03:04:41;;;;;;;18.00;10.90;;;;;;;4.03;90.47;99145.30;131478;1253;108812;-85
2023/12/14 03:07:47;;;;;;;16.30;10.00;;;;;;;4.05;90.37;99146.36;131491;1253;108563;-85
2023/12/14 03:10:53;;;;;;;17.60;10.50;;;;;;;4.06;90.41;99153.30;131467;1250;108590;-85
2023/12/14 03:13:59;;;;;;;15.40;9.90;;;;;;;4.06;90.22;99157.52;131609;1253;108433;-85
2023/12/14 03:17:05;;;;;;;14.10;8.90;;;;;;;4.02;90.29;99159.27;131525;1251;108598;-84
2023/12/14 03:20:14;;;;;;;14.60;9.00;;;;;;;4.01;90.34;99156.52;131402;1251;107476;-84
2023/12/14 03:23:19;;;;;;;14.00;8.70;;;;;;;4.05;90.34;99156.86;131452;1253;108709;-85
2023/12/14 03:26:25;;;;;;;14.80;9.30;;;;;;;4.11;90.37;99157.76;131301;1254;108415;-85
2023/12/14 03:29:31;;;;;;;15.50;9.30;;;;;;;4.17;90.12;99160.77;131539;1250;108530;-86
2023/12/14 03:32:37;;;;;;;16.40;9.80;;;;;;;4.17;90.07;99164.11;131648;1251;106453;-86
2023/12/14 03:35:43;;;;;;;16.70;10.00;;;;;;;4.16;90.11;99165.61;131778;1253;109675;-84
2023/12/14 03:38:49;;;;;;;16.00;9.90;;;;;;;4.14;89.88;99168.56;131406;1250;107695;-86
2023/12/14 03:41:54;;;;;;;16.60;10.10;;;;;;;4.10;90.04;99175.06;131492;1251;107839;-85
2023/12/14 03:45:00;;;;;;;15.90;10.20;;;;;;;4.04;90.11;99179.48;131241;1253;107840;-85
2023/12/14 03:48:06;;;;;;;15.20;9.50;;;;;;;4.02;90.22;99183.70;131212;1251;107679;-86
2023/12/14 03:51:12;;;;;;;16.60;10.00;;;;;;;4.04;90.33;99184.39;131421;1253;108595;-86
2023/12/14 03:54:17;;;;;;;15.60;9.70;;;;;;;4.07;90.25;99187.34;131516;1251;107218;-86
2023/12/14 03:57:23;;;;;;;16.00;10.10;;;;;;;4.11;90.23;99189.61;131426;1253;107252;-87
2023/12/14 04:00:28;;;;;;;16.90;10.20;;;;;;;4.13;90.13;99195.45;131163;1253;107104;-83
2023/12/14 04:03:34;;;;;;;18.20;11.10;;;;;;;4.10;90.09;99191.13;131305;1254;107903;-86
2023/12/14 04:06:40;;;;;;;17.20;10.80;;;;;;;4.08;90.33;99194.48;131516;1253;108532;-86
2023/12/14 04:09:46;;;;;;;15.90;10.40;;;;;;;4.06;90.21;99197.43;131292;1251;106504;-85
2023/12/14 04:12:52;;;;;;;19.40;10.50;;;;;;;4.02;90.23;99199.17;131304;1253;106663;-83
2023/12/14 04:15:58;;;;;;;18.30;10.60;;;;;;;3.99;90.30;99204.77;131342;1254;106560;-85
2023/12/14 04:19:09;;;;;;;18.70;11.10;;;;;;;3.96;90.37;99204.83;131351;1253;108630;-87
2023/12/14 04:22:15;;;;;;;20.50;11.10;;;;;;;4.00;90.29;99212.63;131407;1253;108704;-86
2023/12/14 04:25:20;;;;;;;21.80;13.20;;;;;;;4.01;90.52;99216.90;131510;1253;107744;-85
2023/12/14 04:28:26;;;;;;;21.20;12.70;;;;;;;4.07;90.47;99219.88;131582;1250;107695;-86
2023/12/14 04:31:32;;;;;;;21.00;12.00;;;;;;;4.15;90.37;99220.42;131488;1250;107272;-85
2023/12/14 04:34:38;;;;;;;21.30;12.70;;;;;;;4.20;90.18;99225.63;131301;1249;106590;-85
2023/12/14 04:37:43;;;;;;;21.10;11.90;;;;;;;4.13;90.06;99230.39;131306;1253;106537;-86
2023/12/14 04:40:49;;;;;;;26.10;14.30;;;;;;;4.05;90.12;99232.52;131278;1253;107872;-85
2023/12/14 04:43:54;;;;;;;20.80;11.70;;;;;;;4.02;90.26;99239.33;131250;1253;107494;-85
2023/12/14 04:47:00;;;;;;;23.80;12.30;;;;;;;3.98;90.38;99241.09;131264;1253;108385;-86
2023/12/14 04:50:07;;;;;;;23.70;13.10;;;;;;;3.99;90.47;99245.93;131494;1254;106902;-86
2023/12/14 04:53:12;;;;;;;27.10;14.60;;;;;;;4.05;90.33;99247.88;131426;1249;106007;-86
2023/12/14 04:56:18;;;;;;;25.10;13.60;;;;;;;4.05;90.40;99254.75;131460;1251;107135;-85
2023/12/14 04:59:24;;;;;;;22.40;13.90;;;;;;;4.00;90.30;99257.77;131353;1250;106502;-85
2023/12/14 05:02:29;;;;;;;28.40;14.30;;;;;;;3.97;90.32;99259.48;131287;1253;107536;-84
2023/12/14 05:05:35;;;;;;;23.00;13.60;;;;;;;3.96;90.48;99263.27;131226;1253;108772;-85
2023/12/14 05:08:40;;;;;;;24.40;14.40;;;;;;;3.97;90.27;99265.63;131235;1250;107278;-86
2023/12/14 05:11:46;;;;;;;25.90;13.70;;;;;;;3.96;90.56;99270.35;131194;1250;107298;-86
2023/12/14 05:14:52;;;;;;;23.30;13.20;;;;;;;3.97;90.47;99271.82;131266;1251;107025;-84
2023/12/14 05:17:58;;;;;;;23.50;12.40;;;;;;;3.96;90.49;99278.77;131242;1250;107587;-87
2023/12/14 05:21:04;;;;;;;25.80;14.00;;;;;;;3.90;90.56;99282.95;131370;1250;108592;-84
2023/12/14 05:24:10;;;;;;;24.30;13.10;;;;;;;3.89;90.62;99287.07;131302;1251;106389;-85
2023/12/14 05:27:16;;;;;;;24.90;13.50;;;;;;;3.94;90.56;99290.71;131556;1253;108717;-83
2023/12/14 05:30:22;;;;;;;24.20;14.00;;;;;;;3.95;90.49;99290.10;131473;1253;106443;-86
2023/12/14 05:33:27;;;;;;;26.00;13.90;;;;;;;3.94;90.33;99295.84;131676;1253;108637;-86
2023/12/14 05:36:33;;;;;;;26.00;13.90;;;;;;;3.79;90.55;99298.48;131290;1253;108596;-85
2023/12/14 05:39:45;;;;;;;23.00;13.00;;;;;;;3.73;90.84;99302.70;131233;1254;107791;-83
2023/12/14 05:42:51;;;;;;;23.20;12.70;;;;;;;3.70;90.83;99308.23;131295;1266;107375;-85
2023/12/14 05:45:56;;;;;;;21.80;12.70;;;;;;;3.74;90.83;99314.77;131323;1260;107038;-83
2023/12/14 05:49:02;;;;;;;23.00;13.80;;;;;;;3.77;90.72;99315.98;131576;1250;108290;-82
2023/12/14 05:52:08;;;;;;;23.00;13.50;;;;;;;3.80;90.72;99316.86;131423;1253;106507;-82
2023/12/14 05:55:14;;;;;;;24.20;13.60;;;;;;;3.80;90.47;99320.41;131238;1253;107273;-84
2023/12/14 05:58:22;;;;;;;23.10;13.30;;;;;;;3.74;90.58;99325.83;131372;1251;107614;-82
2023/12/14 06:01:29;;;;;;;24.20;13.30;;;;;;;3.74;90.63;99337.98;131104;1256;107963;-82
2023/12/14 06:04:35;;;;;;;24.60;14.10;;;;;;;3.72;90.73;99337.81;131224;1251;107694;-82
2023/12/14 06:07:41;;;;;;;24.10;12.90;;;;;;;3.75;90.82;99337.58;131248;1252;107709;-83
2023/12/14 06:10:46;;;;;;;22.60;12.80;;;;;;;3.72;90.80;99341.63;131260;1253;106602;-83
2023/12/14 06:13:52;;;;;;;21.30;12.70;;;;;;;3.72;90.91;99345.17;131197;1253;107451;-82
2023/12/14 06:16:58;;;;;;;19.80;11.80;;;;;;;3.78;90.95;99348.00;131217;1253;107334;-83
2023/12/14 06:20:05;;;;;;;22.80;13.50;;;;;;;3.78;90.74;99351.92;131271;1253;107605;-83
2023/12/14 06:23:11;;;;;;;24.10;13.80;;;;;;;3.82;90.94;99356.89;131205;1256;107488;-84
2023/12/14 06:26:16;;;;;;;23.00;14.00;;;;;;;3.91;90.87;99353.40;131272;1253;107604;-83
2023/12/14 06:29:22;;;;;;;25.20;14.30;;;;;;;3.99;90.59;99356.46;131385;1251;106549;-83
2023/12/14 06:32:29;;;;;;;24.00;14.40;;;;;;;3.99;90.59;99360.69;131271;1251;107088;-83
2023/12/14 06:35:34;;;;;;;22.40;12.40;;;;;;;3.99;90.69;99366.17;131142;1253;107718;-83
2023/12/14 06:38:41;;;;;;;23.70;13.10;;;;;;;4.01;90.53;99370.58;131312;1249;108706;-84
2023/12/14 06:41:47;;;;;;;21.40;12.90;;;;;;;4.04;90.65;99377.50;131211;1253;108681;-81
2023/12/14 06:44:53;;;;;;;27.00;13.60;;;;;;;4.09;90.54;99379.67;131305;1252;107028;-80
2023/12/14 06:47:58;;;;;;;24.30;13.40;;;;;;;4.08;90.46;99382.05;131152;1253;108682;-80
2023/12/14 06:51:04;;;;;;;23.90;13.50;;;;;;;4.10;90.49;99388.70;131740;1253;108367;-78
2023/12/14 06:54:10;;;;;;;23.10;13.50;;;;;;;4.11;90.47;99387.79;131139;1264;106803;-81
2023/12/14 06:57:15;;;;;;;19.80;11.90;;;;;;;4.10;90.29;99397.15;131147;1253;107084;-79
2023/12/14 07:00:21;;;;;;;19.70;11.90;;;;;;;4.08;90.17;99403.16;131123;1266;107426;-79
2023/12/14 07:03:27;;;;;;;19.20;11.40;;;;;;;4.07;90.34;99405.91;131113;1250;108282;-80
2023/12/14 07:06:34;;;;;;;19.30;11.50;;;;;;;4.04;90.26;99411.08;131105;1253;108647;-80
2023/12/14 07:09:40;;;;;;;19.30;10.60;;;;;;;4.00;90.28;99412.27;131161;1250;106655;-81
2023/12/14 07:12:46;;;;;;;19.40;11.90;;;;;;;3.99;90.34;99413.78;131165;1250;107561;-81
2023/12/14 07:15:52;;;;;;;19.60;11.70;;;;;;;3.93;90.48;99419.73;131120;1250;108068;-81
2023/12/14 07:18:57;;;;;;;21.50;12.80;;;;;;;3.91;90.50;99426.42;131142;1251;106604;-80
2023/12/14 07:22:03;;;;;;;18.10;10.80;;;;;;;3.90;90.64;99424.90;131106;1255;108468;-81
2023/12/14 07:25:10;;;;;;;19.70;11.80;;;;;;;3.89;90.46;99431.84;131125;1253;107960;-80
2023/12/14 07:28:15;;;;;;;17.20;10.80;;;;;;;3.85;90.67;99434.20;131129;1251;106897;-79
2023/12/14 07:31:21;;;;;;;19.80;11.70;;;;;;;3.86;90.78;99436.73;131078;1253;106974;-79
2023/12/14 07:34:28;;;;;;;20.90;12.20;;;;;;;3.90;90.72;99436.73;131084;1251;108545;-79
2023/12/14 07:37:33;;;;;;;20.80;11.30;;;;;;;3.94;90.72;99433.77;131108;1250;108779;-80
2023/12/14 07:40:40;;;;;;;25.20;13.40;;;;;;;3.99;90.52;99440.20;131247;1251;108588;-80
2023/12/14 07:43:45;;;;;;;23.70;12.40;;;;;;;4.02;90.65;99440.61;131200;1251;106779;-82
2023/12/14 07:46:51;;;;;;;23.20;13.70;;;;;;;4.07;90.49;99446.02;131067;1253;108708;-81
2023/12/14 07:49:57;;;;;;;23.40;13.10;;;;;;;4.08;90.46;99451.25;131099;1251;107783;-79
2023/12/14 07:53:02;;;;;;;23.60;13.40;;;;;;;3.97;90.16;99452.14;131087;1253;107577;-80
2023/12/14 07:56:09;;;;;;;24.80;13.30;;;;;;;3.88;90.42;99451.36;131015;1250;108606;-80
2023/12/14 07:59:15;;;;;;;24.30;12.90;;;;;;;3.84;90.71;99459.20;131084;1251;107742;-80
2023/12/14 08:02:20;;;;;;;23.40;12.00;;;;;;;3.81;90.72;99457.68;131103;1253;106494;-80
2023/12/14 08:05:26;;;;;;;25.70;13.00;;;;;;;3.78;90.87;99464.65;131075;1253;108129;-80
2023/12/14 08:08:32;;;;;;;22.80;12.60;;;;;;;3.73;90.91;99468.60;131120;1260;107629;-80
2023/12/14 08:11:37;;;;;;;26.20;14.00;;;;;;;3.74;90.87;99472.05;131202;1252;107363;-80
2023/12/14 08:14:43;;;;;;;25.00;13.20;;;;;;;3.74;90.88;99477.84;131139;1251;107757;-80
2023/12/14 08:17:49;;;;;;;26.20;13.40;;;;;;;3.70;90.97;99483.75;131246;1253;108505;-80
2023/12/14 08:20:55;;;;;;;26.30;13.00;;;;;;;3.67;90.99;99484.95;131109;1251;106919;-79
2023/12/14 08:24:01;;;;;;;25.10;12.60;;;;;;;3.65;91.02;99489.19;131097;1253;106624;-81
2023/12/14 08:27:06;;;;;;;25.40;13.30;;;;;;;3.69;91.33;99497.61;131092;1252;107641;-80
2023/12/14 08:30:14;;;;;;;25.70;13.80;;;;;;;3.74;91.17;99506.02;131068;1253;107705;-81
2023/12/14 08:33:19;;;;;;;26.40;14.10;;;;;;;3.74;90.94;99511.21;131129;1252;107683;-81
2023/12/14 08:36:25;;;;;;;26.70;13.10;;;;;;;3.76;90.95;99509.87;131019;1253;108633;-78
2023/12/14 08:39:31;;;;;;;26.80;14.50;;;;;;;3.79;90.92;99516.89;131077;1251;107696;-81
2023/12/14 08:42:36;;;;;;;26.80;14.10;;;;;;;3.78;90.74;99524.11;131096;1253;107155;-78
2023/12/14 08:45:42;;;;;;;28.60;13.50;;;;;;;3.80;91.08;99533.77;131250;1253;107673;-81
2023/12/14 08:48:48;;;;;;;25.00;12.90;;;;;;;3.85;90.84;99535.13;131055;1251;108571;-78
2023/12/14 08:51:55;;;;;;;26.30;12.50;;;;;;;3.91;90.79;99539.95;131087;1253;106400;-79
2023/12/14 08:55:01;;;;;;;27.20;14.40;;;;;;;3.97;90.81;99543.50;131017;1253;106214;-80
2023/12/14 08:58:07;;;;;;;25.40;13.50;;;;;;;4.03;90.71;99551.21;131142;1254;107753;-82
2023/12/14 09:01:19;;;;;;;28.10;14.10;;;;;;;4.01;90.57;99554.23;131210;1252;107286;-80
2023/12/14 09:04:25;;;;;;;26.60;13.80;;;;;;;3.94;90.61;99559.20;131134;1265;107662;-78
2023/12/14 09:07:31;;;;;;;26.70;13.50;;;;;;;3.95;90.86;99560.41;131099;1253;107716;-80
2023/12/14 09:10:37;;;;;;;32.30;15.20;;;;;;;3.93;90.63;99567.39;131102;1253;107778;-80
2023/12/14 09:13:43;;;;;;;29.20;14.10;;;;;;;3.87;90.74;99572.31;131083;1253;108657;-81
2023/12/14 09:16:48;;;;;;;24.20;12.50;;;;;;;3.90;91.18;99576.80;131181;1255;107472;-82
2023/12/14 09:19:54;;;;;;;29.00;14.70;;;;;;;3.98;90.88;99581.46;131107;1251;107611;-80
2023/12/14 09:22:59;;;;;;;32.60;16.60;;;;;;;3.97;90.90;99579.59;131070;1253;107761;-81
2023/12/14 09:26:05;;;;;;;34.50;16.90;;;;;;;3.92;91.01;99583.60;131015;1250;106495;-80
2023/12/14 09:29:11;;;;;;;30.40;15.50;;;;;;;3.94;91.12;99586.86;131077;1250;107626;-81
2023/12/14 09:32:17;;;;;;;30.50;15.00;;;;;;;3.98;91.17;99587.09;131121;1251;108405;-80
2023/12/14 09:35:23;;;;;;;31.70;15.60;;;;;;;4.03;91.07;99594.88;131184;1251;106380;-82
2023/12/14 09:38:29;;;;;;;29.60;13.60;;;;;;;4.01;90.88;99598.40;131168;1253;108649;-85
2023/12/14 09:41:34;;;;;;;38.30;18.90;;;;;;;4.00;90.93;99595.31;131345;1250;106431;-82
2023/12/14 09:44:40;;;;;;;38.60;20.50;;;;;;;3.95;90.87;99594.50;131253;1253;108807;-82
2023/12/14 09:47:47;;;;;;;33.30;16.80;;;;;;;3.91;91.03;99598.13;131238;1253;106482;-81
2023/12/14 09:50:53;;;;;;;33.30;17.50;;;;;;;3.95;91.28;99600.85;131252;1253;106560;-81
2023/12/14 09:53:59;;;;;;;33.10;17.10;;;;;;;4.01;91.22;99605.29;131041;1251;107298;-81
2023/12/14 09:57:05;;;;;;;39.70;22.30;;;;;;;4.05;91.13;99606.37;131202;1251;107591;-81
2023/12/14 10:00:14;;;;;;;40.20;19.80;;;;;;;4.02;90.98;99606.60;131443;1247;106863;-79
2023/12/14 10:03:26;;;;;;;29.20;14.00;;;;;;;3.90;91.01;99607.71;131203;1248;108464;-80
2023/12/14 10:06:32;;;;;;;27.20;13.90;;;;;;;3.83;91.12;99612.23;131340;1255;106517;-81
2023/12/14 10:09:39;;;;;;;47.70;26.00;;;;;;;3.78;91.18;99618.08;131093;1253;106575;-81
2023/12/14 10:12:55;;;;;;;36.90;19.00;;;;;;;3.79;91.46;99624.46;131157;1253;108540;-83
2023/12/14 10:16:01;;;;;;;35.80;21.80;;;;;;;3.84;91.35;99626.58;131384;1254;106777;-82
2023/12/14 10:19:06;;;;;;;33.70;18.00;;;;;;;3.82;91.04;99632.11;131046;1251;106617;-81
2023/12/14 10:22:14;;;;;;;38.50;20.60;;;;;;;3.77;91.02;99638.18;131293;1248;106871;-81
2023/12/14 10:25:21;;;;;;;35.50;19.20;;;;;;;3.72;91.18;99638.93;131137;1253;106986;-81
2023/12/14 10:28:27;;;;;;;36.50;20.00;;;;;;;3.66;91.16;99643.52;131209;1251;108872;-83
2023/12/14 10:31:37;;;;;;;35.20;19.50;;;;;;;3.63;91.30;99644.58;131195;1250;107515;-81
2023/12/14 10:34:43;;;;;;;31.80;17.10;;;;;;;3.71;91.40;99642.20;131263;1251;106430;-81
2023/12/14 10:37:50;;;;;;;33.90;19.50;;;;;;;3.79;91.25;99645.77;131182;1253;107632;-81
2023/12/14 10:40:58;;;;;;;32.40;17.80;;;;;;;3.85;91.39;99652.34;131196;1251;106728;-82
2023/12/14 10:44:05;;;;;;;31.30;17.20;;;;;;;3.94;91.21;99650.91;131220;1253;106688;-81
2023/12/14 10:47:10;;;;;;;33.50;18.90;;;;;;;3.95;90.94;99653.10;131230;1253;107428;-82
2023/12/14 10:50:16;;;;;;;41.40;24.20;;;;;;;3.98;91.17;99651.48;131165;1253;108472;-82
2023/12/14 10:53:22;;;;;;;38.00;20.30;;;;;;;3.97;91.16;99653.85;131187;1250;108529;-82
2023/12/14 10:56:28;;;;;;;37.70;18.80;;;;;;;3.92;91.01;99653.02;131176;1251;107628;-82
2023/12/14 10:59:34;;;;;;;34.50;18.80;;;;;;;3.80;91.10;99656.06;131282;1250;107874;-82
2023/12/14 11:02:46;;;;;;;35.30;19.00;;;;;;;3.73;91.14;99659.77;131175;1252;106840;-82
2023/12/14 11:05:51;;;;;;;45.90;23.90;;;;;;;3.73;91.26;99665.58;131220;1249;106253;-81
2023/12/14 11:08:59;;;;;;;38.70;20.40;;;;;;;3.71;91.57;99663.09;131202;1251;107273;-81
2023/12/14 11:12:09;;;;;;;42.40;21.10;;;;;;;3.68;91.65;99664.80;131186;1251;106812;-80
2023/12/14 11:15:14;;;;;;;40.70;21.50;;;;;;;3.60;91.99;99667.38;131270;1253;107991;-80
2023/12/14 11:18:25;;;;;;;35.20;17.90;;;;;;;3.50;92.22;99672.36;131323;1253;106957;-82
2023/12/14 11:21:31;;;;;;;32.80;17.30;;;;;;;3.36;92.45;99673.80;131130;1253;107735;-82
2023/12/14 11:24:38;;;;;;;34.30;17.60;;;;;;;3.26;92.64;99678.33;131352;1251;107804;-82
2023/12/14 11:27:46;;;;;;;32.80;17.10;;;;;;;3.21;92.64;99682.80;131220;1253;107686;-82
2023/12/14 11:30:51;;;;;;;28.10;16.50;;;;;;;3.21;92.50;99678.02;131350;1253;108734;-82
2023/12/14 11:33:57;;;;;;;30.70;16.20;;;;;;;3.16;92.28;99687.84;131264;1250;109952;-82
2023/12/14 11:37:03;;;;;;;29.10;15.40;;;;;;;3.15;92.29;99684.23;131325;1252;107113;-82
2023/12/14 11:40:11;;;;;;;34.20;18.70;;;;;;;3.22;92.78;99688.86;131299;1252;108376;-82
2023/12/14 11:43:20;;;;;;;33.90;19.10;;;;;;;3.31;92.61;99688.98;131313;1253;106890;-83
2023/12/14 11:46:25;;;;;;;37.30;20.10;;;;;;;3.41;92.60;99694.86;131382;1253;107715;-80
2023/12/14 11:49:32;;;;;;;28.70;16.70;;;;;;;3.41;92.48;99695.26;131301;1250;108571;-81
2023/12/14 11:52:37;;;;;;;27.90;18.50;;;;;;;3.31;92.57;99700.23;131238;1251;107786;-82
2023/12/14 11:55:44;;;;;;;34.40;19.40;;;;;;;3.31;92.59;99699.04;131261;1250;108546;-83
2023/12/14 11:58:50;;;;;;;100.80;43.00;;;;;;;3.32;92.54;99696.79;131304;1253;108509;-81
2023/12/14 12:02:00;;;;;;;28.70;17.60;;;;;;;3.33;92.49;99705.68;131282;1253;107725;-82
2023/12/14 12:05:06;;;;;;;46.30;26.80;;;;;;;3.37;92.51;99701.53;131272;1250;106936;-81
2023/12/14 12:08:13;;;;;;;41.60;25.10;;;;;;;3.33;91.97;99703.40;131307;1250;106754;-81
2023/12/14 12:11:20;;;;;;;53.60;30.30;;;;;;;3.30;92.14;99703.50;131311;1250;106791;-81
2023/12/14 12:14:26;;;;;;;28.50;17.00;;;;;;;3.30;92.36;99706.81;131262;1251;108695;-82
2023/12/14 12:17:37;;;;;;;18.50;11.60;;;;;;;3.27;92.09;99708.81;131296;1250;108791;-81
2023/12/14 12:20:43;;;;;;;26.40;14.40;;;;;;;3.15;92.25;99708.51;131192;1253;108570;-81
2023/12/14 12:23:48;;;;;;;23.70;13.50;;;;;;;3.16;92.68;99718.64;131227;1251;108699;-82
2023/12/14 12:26:54;;;;;;;23.60;14.90;;;;;;;3.23;92.63;99721.45;131256;1253;108447;-81
2023/12/14 12:30:00;;;;;;;23.80;13.80;;;;;;;3.26;92.51;99722.59;131226;1250;107080;-81
2023/12/14 12:33:05;;;;;;;21.70;13.20;;;;;;;3.33;92.59;99725.36;131220;1253;106429;-83
2023/12/14 12:36:11;;;;;;;22.20;13.50;;;;;;;3.33;92.39;99727.85;131197;1250;106813;-83
2023/12/14 12:39:17;;;;;;;21.00;13.00;;;;;;;3.24;92.51;99728.90;131248;1250;107892;-82
2023/12/14 12:42:23;;;;;;;27.30;16.30;;;;;;;3.22;92.68;99733.29;131167;1263;106124;-83
2023/12/14 12:45:29;;;;;;;29.10;18.20;;;;;;;3.21;92.72;99735.62;131215;1251;108536;-82
2023/12/14 12:48:35;;;;;;;99.80;44.10;;;;;;;3.20;92.86;99734.52;131179;1253;108697;-82
2023/12/14 12:51:41;;;;;;;57.30;36.30;;;;;;;3.21;93.02;99740.24;131355;1262;106402;-82
2023/12/14 12:54:46;;;;;;;39.90;24.20;;;;;;;3.19;92.84;99740.59;131147;1253;107737;-82
2023/12/14 12:57:52;;;;;;;72.20;37.30;;;;;;;3.14;92.92;99742.29;131182;1253;108664;-82
2023/12/14 13:00:58;;;;;;;49.00;27.90;;;;;;;3.13;93.21;99747.28;131287;1253;107650;-82
2023/12/14 13:04:04;;;;;;;41.70;24.00;;;;;;;3.13;93.24;99755.59;131210;1250;108646;-82
2023/12/14 13:07:11;;;;;;;29.30;17.50;;;;;;;3.13;93.21;99760.54;131279;1253;108632;-82
2023/12/14 13:10:19;;;;;;;55.30;36.80;;;;;;;3.05;93.54;99761.95;131185;1251;108912;-82
2023/12/14 13:13:24;;;;;;;33.20;19.60;;;;;;;2.98;93.63;99768.48;131307;1253;108653;-84
2023/12/14 13:16:30;;;;;;;95.80;59.50;;;;;;;2.93;93.62;99771.68;131400;1253;106554;-83
2023/12/14 13:19:36;;;;;;;63.60;36.70;;;;;;;2.90;93.81;99776.50;131303;1250;107615;-82
2023/12/14 13:22:41;;;;;;;68.20;42.30;;;;;;;2.86;93.98;99780.63;131196;1251;106425;-81
2023/12/14 13:25:47;;;;;;;74.30;46.40;;;;;;;2.90;93.84;99781.02;131443;1253;108681;-81
2023/12/14 13:28:53;;;;;;;47.60;30.10;;;;;;;2.95;93.92;99778.96;131352;1251;108402;-83
2023/12/14 13:31:59;;;;;;;30.10;17.20;;;;;;;3.03;93.69;99786.42;131444;1266;106261;-80
2023/12/14 13:35:05;;;;;;;26.60;15.00;;;;;;;3.03;93.43;99787.14;131261;1253;108535;-82
2023/12/14 13:38:11;;;;;;;26.30;14.60;;;;;;;3.00;93.56;99793.84;131340;1250;108555;-83
2023/12/14 13:41:16;;;;;;;26.40;15.40;;;;;;;3.03;93.48;99787.27;131372;1250;107735;-83
2023/12/14 13:44:22;;;;;;;26.30;16.30;;;;;;;3.08;93.35;99793.41;131271;1251;106255;-83
2023/12/14 13:47:28;;;;;;;42.00;26.20;;;;;;;3.07;93.54;99803.52;131206;1253;108652;-82
2023/12/14 13:50:34;;;;;;;29.90;18.30;;;;;;;3.05;93.70;99806.45;131225;1250;108687;-81
2023/12/14 13:53:43;;;;;;;36.30;24.90;;;;;;;3.04;93.55;99815.34;131224;1253;108023;-83
2023/12/14 13:56:49;;;;;;;28.10;17.40;;;;;;;3.01;93.58;99823.25;131187;1251;108619;-81
2023/12/14 13:59:54;;;;;;;29.70;16.40;;;;;;;3.00;93.57;99830.54;131237;1253;106512;-83
2023/12/14 14:03:00;;;;;;;27.10;14.90;;;;;;;3.01;93.34;99832.39;131298;1252;108773;-83
2023/12/14 14:06:07;;;;;;;34.00;19.10;;;;;;;3.00;93.63;99834.98;131225;1251;108067;-85